sensor_id;sensor_type;location;lat;lon;timestamp;P1;durP1;ratioP1;P2;durP2;ratioP2
81231;SDS011;70703;55.652;37.710;2024-03-23T00:52:29;50.95;;;30.67;;
81231;SDS011;70703;55.652;37.710;2024-03-23T00:52:42;50.28;;;30.70;;
81231;SDS011;70703;55.652;37.710;2024-03-23T00:53:34;48.05;;;29.95;;
81231;SDS011;70703;55.652;37.710;2024-03-23T00:54:00;49.78;;;29.70;;
81231;SDS011;70703;55.652;37.710;2024-03-23T00:54:11;49.70;;;30.15;;
81231;SDS011;70703;55.652;37.710;2024-03-23T00:54:23;53.10;;;30.98;;
81231;SDS011;70703;55.652;37.710;2024-03-23T00:54:34;54.88;;;31.27;;
81231;SDS011;70703;55.652;37.710;2024-03-23T00:54:46;54.15;;;30.92;;
81231;SDS011;70703;55.652;37.710;2024-03-23T00:54:58;52.38;;;30.25;;
81231;SDS011;70703;55.652;37.710;2024-03-23T00:55:09;49.83;;;29.98;;
81231;SDS011;70703;55.652;37.710;2024-03-23T00:55:22;48.58;;;29.63;;
81231;SDS011;70703;55.652;37.710;2024-03-23T00:55:35;48.42;;;29.50;;
81231;SDS011;70703;55.652;37.710;2024-03-23T00:55:46;51.95;;;30.10;;
81231;SDS011;70703;55.652;37.710;2024-03-23T00:55:58;53.30;;;30.10;;
81231;SDS011;70703;55.652;37.710;2024-03-23T00:56:11;50.97;;;30.42;;
81231;SDS011;70703;55.652;37.710;2024-03-23T00:56:24;49.30;;;30.77;;
81231;SDS011;70703;55.652;37.710;2024-03-23T00:56:35;50.80;;;30.80;;
81231;SDS011;70703;55.652;37.710;2024-03-23T00:56:47;52.17;;;31.02;;
81231;SDS011;70703;55.652;37.710;2024-03-23T00:56:58;52.33;;;31.20;;
81231;SDS011;70703;55.652;37.710;2024-03-23T00:57:10;49.28;;;30.73;;
81231;SDS011;70703;55.652;37.710;2024-03-23T00:57:22;48.90;;;30.00;;
81231;SDS011;70703;55.652;37.710;2024-03-23T00:57:34;48.38;;;29.65;;
81231;SDS011;70703;55.652;37.710;2024-03-23T00:57:46;48.33;;;29.98;;
81231;SDS011;70703;55.652;37.710;2024-03-23T00:57:57;49.17;;;30.30;;
81231;SDS011;70703;55.652;37.710;2024-03-23T00:58:09;49.42;;;30.60;;
81231;SDS011;70703;55.652;37.710;2024-03-23T00:58:21;48.50;;;30.42;;
81231;SDS011;70703;55.652;37.710;2024-03-23T00:58:34;49.65;;;30.83;;
81231;SDS011;70703;55.652;37.710;2024-03-23T00:58:45;50.63;;;31.15;;
81231;SDS011;70703;55.652;37.710;2024-03-23T00:58:59;50.67;;;30.95;;
81231;SDS011;70703;55.652;37.710;2024-03-23T00:59:10;50.03;;;30.60;;
81231;SDS011;70703;55.652;37.710;2024-03-23T00:59:22;48.10;;;30.23;;
81231;SDS011;70703;55.652;37.710;2024-03-23T00:59:38;47.65;;;29.85;;
81231;SDS011;70703;55.652;37.710;2024-03-23T00:59:50;48.00;;;29.73;;
81231;SDS011;70703;55.652;37.710;2024-03-23T01:00:02;47.45;;;29.60;;
81231;SDS011;70703;55.652;37.710;2024-03-23T01:00:17;48.65;;;30.15;;
81231;SDS011;70703;55.652;37.710;2024-03-23T01:00:28;50.78;;;31.00;;
81231;SDS011;70703;55.652;37.710;2024-03-23T01:00:40;51.50;;;30.75;;
81231;SDS011;70703;55.652;37.710;2024-03-23T01:00:52;52.38;;;30.63;;
81231;SDS011;70703;55.652;37.710;2024-03-23T01:01:03;50.20;;;30.60;;
81231;SDS011;70703;55.652;37.710;2024-03-23T01:01:15;51.15;;;30.75;;
81231;SDS011;70703;55.652;37.710;2024-03-23T01:01:26;52.88;;;31.13;;
81231;SDS011;70703;55.652;37.710;2024-03-23T01:01:37;53.20;;;30.67;;
81231;SDS011;70703;55.652;37.710;2024-03-23T01:01:49;49.45;;;30.20;;
81231;SDS011;70703;55.652;37.710;2024-03-23T01:02:01;47.45;;;29.85;;
81231;SDS011;70703;55.652;37.710;2024-03-23T01:02:12;48.05;;;29.98;;
81231;SDS011;70703;55.652;37.710;2024-03-23T01:02:24;49.92;;;30.10;;
81231;SDS011;70703;55.652;37.710;2024-03-23T01:02:37;51.45;;;30.20;;
81231;SDS011;70703;55.652;37.710;2024-03-23T01:02:49;50.95;;;30.05;;
81231;SDS011;70703;55.652;37.710;2024-03-23T01:03:01;48.05;;;29.95;;
81231;SDS011;70703;55.652;37.710;2024-03-23T01:03:13;50.47;;;30.67;;
81231;SDS011;70703;55.652;37.710;2024-03-23T01:03:27;49.70;;;30.83;;
81231;SDS011;70703;55.652;37.710;2024-03-23T01:03:39;50.50;;;31.80;;
81231;SDS011;70703;55.652;37.710;2024-03-23T01:03:51;50.25;;;32.00;;
81231;SDS011;70703;55.652;37.710;2024-03-23T01:04:02;50.57;;;31.40;;
81231;SDS011;70703;55.652;37.710;2024-03-23T01:04:13;50.40;;;31.10;;
81231;SDS011;70703;55.652;37.710;2024-03-23T01:04:25;49.80;;;30.58;;
81231;SDS011;70703;55.652;37.710;2024-03-23T01:04:38;48.28;;;30.00;;
81231;SDS011;70703;55.652;37.710;2024-03-23T01:04:50;48.28;;;30.40;;
81231;SDS011;70703;55.652;37.710;2024-03-23T01:05:03;48.17;;;30.80;;
81231;SDS011;70703;55.652;37.710;2024-03-23T01:05:15;48.90;;;30.55;;
81231;SDS011;70703;55.652;37.710;2024-03-23T01:05:27;51.63;;;31.05;;
81231;SDS011;70703;55.652;37.710;2024-03-23T01:05:39;51.53;;;31.10;;
81231;SDS011;70703;55.652;37.710;2024-03-23T01:05:52;50.53;;;30.73;;
81231;SDS011;70703;55.652;37.710;2024-03-23T01:06:05;49.03;;;29.70;;
81231;SDS011;70703;55.652;37.710;2024-03-23T01:06:19;48.88;;;29.80;;
81231;SDS011;70703;55.652;37.710;2024-03-23T01:06:31;49.78;;;30.50;;
81231;SDS011;70703;55.652;37.710;2024-03-23T01:06:42;49.22;;;31.10;;
81231;SDS011;70703;55.652;37.710;2024-03-23T01:06:54;49.67;;;31.08;;
81231;SDS011;70703;55.652;37.710;2024-03-23T01:07:05;54.03;;;31.55;;
81231;SDS011;70703;55.652;37.710;2024-03-23T01:07:16;55.00;;;31.85;;
81231;SDS011;70703;55.652;37.710;2024-03-23T01:07:30;53.03;;;31.90;;
81231;SDS011;70703;55.652;37.710;2024-03-23T01:07:42;51.15;;;31.63;;
81231;SDS011;70703;55.652;37.710;2024-03-23T01:07:54;51.13;;;31.23;;
81231;SDS011;70703;55.652;37.710;2024-03-23T01:08:05;52.05;;;31.40;;
81231;SDS011;70703;55.652;37.710;2024-03-23T01:08:17;53.17;;;31.50;;
81231;SDS011;70703;55.652;37.710;2024-03-23T01:08:28;53.97;;;32.00;;
81231;SDS011;70703;55.652;37.710;2024-03-23T01:08:39;51.42;;;31.13;;
81231;SDS011;70703;55.652;37.710;2024-03-23T01:08:51;48.70;;;30.88;;
81231;SDS011;70703;55.652;37.710;2024-03-23T01:09:03;47.63;;;30.20;;
81231;SDS011;70703;55.652;37.710;2024-03-23T01:09:15;48.40;;;30.38;;
81231;SDS011;70703;55.652;37.710;2024-03-23T01:09:26;50.55;;;30.98;;
81231;SDS011;70703;55.652;37.710;2024-03-23T01:09:38;50.40;;;31.05;;
81231;SDS011;70703;55.652;37.710;2024-03-23T01:09:50;51.35;;;30.98;;
81231;SDS011;70703;55.652;37.710;2024-03-23T01:10:04;51.35;;;30.50;;
81231;SDS011;70703;55.652;37.710;2024-03-23T01:10:17;51.97;;;30.58;;
81231;SDS011;70703;55.652;37.710;2024-03-23T01:10:29;50.67;;;30.90;;
81231;SDS011;70703;55.652;37.710;2024-03-23T01:10:42;50.80;;;31.23;;
81231;SDS011;70703;55.652;37.710;2024-03-23T01:10:54;51.70;;;31.00;;
81231;SDS011;70703;55.652;37.710;2024-03-23T01:11:06;50.58;;;30.25;;
81231;SDS011;70703;55.652;37.710;2024-03-23T01:11:18;51.53;;;31.10;;
81231;SDS011;70703;55.652;37.710;2024-03-23T01:11:30;54.00;;;31.20;;
81231;SDS011;70703;55.652;37.710;2024-03-23T01:11:41;52.53;;;30.60;;
81231;SDS011;70703;55.652;37.710;2024-03-23T01:11:52;51.45;;;30.40;;
81231;SDS011;70703;55.652;37.710;2024-03-23T01:12:04;51.08;;;30.67;;
81231;SDS011;70703;55.652;37.710;2024-03-23T01:12:17;51.92;;;30.58;;
81231;SDS011;70703;55.652;37.710;2024-03-23T01:12:28;52.38;;;30.48;;
81231;SDS011;70703;55.652;37.710;2024-03-23T01:12:40;49.97;;;30.25;;
81231;SDS011;70703;55.652;37.710;2024-03-23T01:12:51;47.85;;;30.30;;
81231;SDS011;70703;55.652;37.710;2024-03-23T01:13:03;49.95;;;30.52;;
81231;SDS011;70703;55.652;37.710;2024-03-23T01:13:16;51.70;;;30.50;;
81231;SDS011;70703;55.652;37.710;2024-03-23T01:13:31;50.05;;;30.48;;
81231;SDS011;70703;55.652;37.710;2024-03-23T01:13:43;51.28;;;30.92;;
81231;SDS011;70703;55.652;37.710;2024-03-23T01:13:55;51.42;;;30.60;;
81231;SDS011;70703;55.652;37.710;2024-03-23T01:14:07;49.78;;;30.27;;
81231;SDS011;70703;55.652;37.710;2024-03-23T01:14:18;48.70;;;30.27;;
81231;SDS011;70703;55.652;37.710;2024-03-23T01:14:30;50.30;;;30.65;;
81231;SDS011;70703;55.652;37.710;2024-03-23T01:14:42;51.45;;;30.67;;
81231;SDS011;70703;55.652;37.710;2024-03-23T01:14:53;52.35;;;30.98;;
81231;SDS011;70703;55.652;37.710;2024-03-23T01:15:07;50.53;;;30.55;;
81231;SDS011;70703;55.652;37.710;2024-03-23T01:15:18;49.47;;;30.67;;
81231;SDS011;70703;55.652;37.710;2024-03-23T01:15:31;50.03;;;30.67;;
81231;SDS011;70703;55.652;37.710;2024-03-23T01:15:47;50.90;;;30.80;;
81231;SDS011;70703;55.652;37.710;2024-03-23T01:15:59;50.08;;;30.42;;
81231;SDS011;70703;55.652;37.710;2024-03-23T01:16:11;49.25;;;30.50;;
81231;SDS011;70703;55.652;37.710;2024-03-23T01:16:22;50.40;;;30.73;;
81231;SDS011;70703;55.652;37.710;2024-03-23T01:16:34;50.88;;;30.67;;
81231;SDS011;70703;55.652;37.710;2024-03-23T01:16:46;50.42;;;30.67;;
81231;SDS011;70703;55.652;37.710;2024-03-23T01:16:59;50.63;;;30.90;;
81231;SDS011;70703;55.652;37.710;2024-03-23T01:17:10;49.65;;;30.95;;
81231;SDS011;70703;55.652;37.710;2024-03-23T01:17:21;49.35;;;31.05;;
81231;SDS011;70703;55.652;37.710;2024-03-23T01:17:33;49.10;;;31.17;;
81231;SDS011;70703;55.652;37.710;2024-03-23T01:17:45;48.78;;;31.27;;
81231;SDS011;70703;55.652;37.710;2024-03-23T01:17:57;48.55;;;30.75;;
81231;SDS011;70703;55.652;37.710;2024-03-23T01:18:08;48.67;;;30.58;;
81231;SDS011;70703;55.652;37.710;2024-03-23T01:18:22;49.00;;;30.58;;
81231;SDS011;70703;55.652;37.710;2024-03-23T01:18:35;49.47;;;30.80;;
81231;SDS011;70703;55.652;37.710;2024-03-23T01:18:46;49.47;;;30.85;;
81231;SDS011;70703;55.652;37.710;2024-03-23T01:18:59;47.20;;;30.25;;
81231;SDS011;70703;55.652;37.710;2024-03-23T01:19:11;48.67;;;30.70;;
81231;SDS011;70703;55.652;37.710;2024-03-23T01:19:23;49.35;;;31.02;;
81231;SDS011;70703;55.652;37.710;2024-03-23T01:19:35;49.90;;;30.80;;
81231;SDS011;70703;55.652;37.710;2024-03-23T01:19:46;50.67;;;30.97;;
81231;SDS011;70703;55.652;37.710;2024-03-23T01:19:57;51.75;;;31.05;;
81231;SDS011;70703;55.652;37.710;2024-03-23T01:20:09;50.17;;;30.92;;
81231;SDS011;70703;55.652;37.710;2024-03-23T01:20:22;47.92;;;30.17;;
81231;SDS011;70703;55.652;37.710;2024-03-23T01:20:34;46.20;;;29.90;;
81231;SDS011;70703;55.652;37.710;2024-03-23T01:20:47;47.28;;;29.38;;
81231;SDS011;70703;55.652;37.710;2024-03-23T01:21:00;49.00;;;29.27;;
81231;SDS011;70703;55.652;37.710;2024-03-23T01:21:11;47.35;;;29.48;;
81231;SDS011;70703;55.652;37.710;2024-03-23T01:21:23;46.38;;;29.75;;
81231;SDS011;70703;55.652;37.710;2024-03-23T01:21:34;47.03;;;30.05;;
81231;SDS011;70703;55.652;37.710;2024-03-23T01:21:47;48.60;;;30.33;;
81231;SDS011;70703;55.652;37.710;2024-03-23T01:22:00;50.97;;;30.63;;
81231;SDS011;70703;55.652;37.710;2024-03-23T01:22:11;52.17;;;30.50;;
81231;SDS011;70703;55.652;37.710;2024-03-23T01:22:24;51.40;;;30.05;;
81231;SDS011;70703;55.652;37.710;2024-03-23T01:22:37;50.17;;;30.02;;
81231;SDS011;70703;55.652;37.710;2024-03-23T01:22:49;48.67;;;29.83;;
81231;SDS011;70703;55.652;37.710;2024-03-23T01:23:02;48.83;;;29.95;;
81231;SDS011;70703;55.652;37.710;2024-03-23T01:23:14;49.55;;;30.02;;
81231;SDS011;70703;55.652;37.710;2024-03-23T01:23:25;47.50;;;30.27;;
81231;SDS011;70703;55.652;37.710;2024-03-23T01:23:37;47.28;;;30.38;;
81231;SDS011;70703;55.652;37.710;2024-03-23T01:23:48;49.33;;;30.63;;
81231;SDS011;70703;55.652;37.710;2024-03-23T01:24:01;53.78;;;30.98;;
81231;SDS011;70703;55.652;37.710;2024-03-23T01:24:13;53.13;;;31.02;;
81231;SDS011;70703;55.652;37.710;2024-03-23T01:24:25;50.05;;;30.85;;
81231;SDS011;70703;55.652;37.710;2024-03-23T01:24:38;48.50;;;30.90;;
81231;SDS011;70703;55.652;37.710;2024-03-23T01:24:50;47.25;;;30.63;;
81231;SDS011;70703;55.652;37.710;2024-03-23T01:25:02;47.25;;;31.20;;
81231;SDS011;70703;55.652;37.710;2024-03-23T01:25:14;47.60;;;30.45;;
81231;SDS011;70703;55.652;37.710;2024-03-23T01:25:26;48.67;;;30.52;;
81231;SDS011;70703;55.652;37.710;2024-03-23T01:25:40;49.50;;;30.88;;
81231;SDS011;70703;55.652;37.710;2024-03-23T01:25:53;49.10;;;30.30;;
81231;SDS011;70703;55.652;37.710;2024-03-23T01:26:04;48.08;;;30.08;;
81231;SDS011;70703;55.652;37.710;2024-03-23T01:26:16;48.40;;;30.08;;
81231;SDS011;70703;55.652;37.710;2024-03-23T01:26:27;48.47;;;30.20;;
81231;SDS011;70703;55.652;37.710;2024-03-23T01:26:39;49.83;;;30.92;;
81231;SDS011;70703;55.652;37.710;2024-03-23T01:26:51;49.10;;;30.80;;
81231;SDS011;70703;55.652;37.710;2024-03-23T01:27:03;49.60;;;30.88;;
81231;SDS011;70703;55.652;37.710;2024-03-23T01:27:14;50.85;;;30.88;;
81231;SDS011;70703;55.652;37.710;2024-03-23T01:27:26;49.78;;;30.90;;
81231;SDS011;70703;55.652;37.710;2024-03-23T01:27:38;49.85;;;30.60;;
81231;SDS011;70703;55.652;37.710;2024-03-23T01:27:50;51.22;;;30.55;;
81231;SDS011;70703;55.652;37.710;2024-03-23T01:28:01;49.17;;;29.58;;
81231;SDS011;70703;55.652;37.710;2024-03-23T01:28:13;47.17;;;29.08;;
81231;SDS011;70703;55.652;37.710;2024-03-23T01:28:24;46.33;;;29.23;;
81231;SDS011;70703;55.652;37.710;2024-03-23T01:28:35;47.72;;;29.88;;
81231;SDS011;70703;55.652;37.710;2024-03-23T01:28:48;48.00;;;30.38;;
81231;SDS011;70703;55.652;37.710;2024-03-23T01:28:59;51.30;;;30.65;;
81231;SDS011;70703;55.652;37.710;2024-03-23T01:29:11;53.35;;;30.92;;
81231;SDS011;70703;55.652;37.710;2024-03-23T01:29:22;52.67;;;30.98;;
81231;SDS011;70703;55.652;37.710;2024-03-23T01:29:35;49.35;;;31.02;;
81231;SDS011;70703;55.652;37.710;2024-03-23T01:29:47;50.72;;;31.25;;
81231;SDS011;70703;55.652;37.710;2024-03-23T01:29:58;50.45;;;31.00;;
81231;SDS011;70703;55.652;37.710;2024-03-23T01:30:10;50.53;;;30.75;;
81231;SDS011;70703;55.652;37.710;2024-03-23T01:30:22;47.60;;;29.80;;
81231;SDS011;70703;55.652;37.710;2024-03-23T01:30:33;48.53;;;30.15;;
81231;SDS011;70703;55.652;37.710;2024-03-23T01:30:45;48.38;;;30.13;;
81231;SDS011;70703;55.652;37.710;2024-03-23T01:30:56;49.17;;;29.90;;
81231;SDS011;70703;55.652;37.710;2024-03-23T01:31:10;50.47;;;30.20;;
81231;SDS011;70703;55.652;37.710;2024-03-23T01:31:20;49.38;;;30.73;;
81231;SDS011;70703;55.652;37.710;2024-03-23T01:31:33;49.08;;;30.48;;
81231;SDS011;70703;55.652;37.710;2024-03-23T01:31:45;48.60;;;30.42;;
81231;SDS011;70703;55.652;37.710;2024-03-23T01:31:56;48.65;;;30.77;;
81231;SDS011;70703;55.652;37.710;2024-03-23T01:32:07;46.58;;;30.13;;
81231;SDS011;70703;55.652;37.710;2024-03-23T01:32:20;49.83;;;30.52;;
81231;SDS011;70703;55.652;37.710;2024-03-23T01:32:33;52.50;;;30.70;;
81231;SDS011;70703;55.652;37.710;2024-03-23T01:32:44;52.97;;;31.00;;
81231;SDS011;70703;55.652;37.710;2024-03-23T01:32:56;50.10;;;31.10;;
81231;SDS011;70703;55.652;37.710;2024-03-23T01:33:08;50.92;;;30.98;;
81231;SDS011;70703;55.652;37.710;2024-03-23T01:33:20;50.60;;;30.55;;
81231;SDS011;70703;55.652;37.710;2024-03-23T01:33:31;50.03;;;30.42;;
81231;SDS011;70703;55.652;37.710;2024-03-23T01:33:44;47.92;;;30.40;;
81231;SDS011;70703;55.652;37.710;2024-03-23T01:33:55;49.10;;;30.48;;
81231;SDS011;70703;55.652;37.710;2024-03-23T01:34:07;48.75;;;30.25;;
81231;SDS011;70703;55.652;37.710;2024-03-23T01:34:18;49.30;;;30.30;;
81231;SDS011;70703;55.652;37.710;2024-03-23T01:34:31;48.20;;;30.10;;
81231;SDS011;70703;55.652;37.710;2024-03-23T01:34:42;51.03;;;30.73;;
81231;SDS011;70703;55.652;37.710;2024-03-23T01:34:54;48.30;;;29.95;;
81231;SDS011;70703;55.652;37.710;2024-03-23T01:35:07;46.53;;;29.80;;
81231;SDS011;70703;55.652;37.710;2024-03-23T01:35:21;46.95;;;30.13;;
81231;SDS011;70703;55.652;37.710;2024-03-23T01:35:32;46.60;;;30.08;;
81231;SDS011;70703;55.652;37.710;2024-03-23T01:35:44;47.53;;;29.77;;
81231;SDS011;70703;55.652;37.710;2024-03-23T01:35:55;47.17;;;29.25;;
81231;SDS011;70703;55.652;37.710;2024-03-23T01:36:07;49.15;;;29.80;;
81231;SDS011;70703;55.652;37.710;2024-03-23T01:36:19;50.60;;;30.33;;
81231;SDS011;70703;55.652;37.710;2024-03-23T01:36:31;50.67;;;30.42;;
81231;SDS011;70703;55.652;37.710;2024-03-23T01:36:43;47.50;;;29.73;;
81231;SDS011;70703;55.652;37.710;2024-03-23T01:36:56;47.50;;;30.13;;
81231;SDS011;70703;55.652;37.710;2024-03-23T01:37:08;48.83;;;30.08;;
81231;SDS011;70703;55.652;37.710;2024-03-23T01:37:19;48.10;;;29.75;;
81231;SDS011;70703;55.652;37.710;2024-03-23T01:37:31;47.42;;;29.55;;
81231;SDS011;70703;55.652;37.710;2024-03-23T01:37:45;44.88;;;29.05;;
81231;SDS011;70703;55.652;37.710;2024-03-23T01:37:56;45.22;;;29.63;;
81231;SDS011;70703;55.652;37.710;2024-03-23T01:38:08;46.50;;;29.95;;
81231;SDS011;70703;55.652;37.710;2024-03-23T01:38:20;49.13;;;29.98;;
81231;SDS011;70703;55.652;37.710;2024-03-23T01:38:32;49.58;;;29.48;;
81231;SDS011;70703;55.652;37.710;2024-03-23T01:38:44;48.47;;;29.15;;
81231;SDS011;70703;55.652;37.710;2024-03-23T01:38:56;48.15;;;29.13;;
81231;SDS011;70703;55.652;37.710;2024-03-23T01:39:08;48.83;;;29.60;;
81231;SDS011;70703;55.652;37.710;2024-03-23T01:39:21;49.05;;;29.52;;
81231;SDS011;70703;55.652;37.710;2024-03-23T01:39:32;49.78;;;29.70;;
81231;SDS011;70703;55.652;37.710;2024-03-23T01:39:44;49.30;;;30.73;;
81231;SDS011;70703;55.652;37.710;2024-03-23T01:39:55;49.25;;;31.15;;
81231;SDS011;70703;55.652;37.710;2024-03-23T01:40:07;49.05;;;31.35;;
81231;SDS011;70703;55.652;37.710;2024-03-23T01:40:24;47.42;;;29.48;;
81231;SDS011;70703;55.652;37.710;2024-03-23T01:40:37;45.45;;;28.75;;
81231;SDS011;70703;55.652;37.710;2024-03-23T01:40:49;46.10;;;28.98;;
81231;SDS011;70703;55.652;37.710;2024-03-23T01:41:06;45.90;;;28.73;;
81231;SDS011;70703;55.652;37.710;2024-03-23T01:41:19;46.42;;;29.15;;
81231;SDS011;70703;55.652;37.710;2024-03-23T01:41:32;49.70;;;30.05;;
81231;SDS011;70703;55.652;37.710;2024-03-23T01:41:45;50.67;;;30.05;;
81231;SDS011;70703;55.652;37.710;2024-03-23T01:41:56;48.05;;;29.00;;
81231;SDS011;70703;55.652;37.710;2024-03-23T01:42:07;47.22;;;29.08;;
81231;SDS011;70703;55.652;37.710;2024-03-23T01:42:18;48.22;;;29.42;;
81231;SDS011;70703;55.652;37.710;2024-03-23T01:42:30;47.40;;;29.60;;
81231;SDS011;70703;55.652;37.710;2024-03-23T01:42:41;48.17;;;29.73;;
81231;SDS011;70703;55.652;37.710;2024-03-23T01:42:57;47.75;;;29.45;;
81231;SDS011;70703;55.652;37.710;2024-03-23T01:43:10;48.25;;;29.50;;
81231;SDS011;70703;55.652;37.710;2024-03-23T01:43:23;49.42;;;29.88;;
81231;SDS011;70703;55.652;37.710;2024-03-23T01:43:34;48.92;;;29.70;;
81231;SDS011;70703;55.652;37.710;2024-03-23T01:43:45;48.22;;;29.48;;
81231;SDS011;70703;55.652;37.710;2024-03-23T01:43:57;46.55;;;29.38;;
81231;SDS011;70703;55.652;37.710;2024-03-23T01:44:09;45.15;;;29.10;;
81231;SDS011;70703;55.652;37.710;2024-03-23T01:44:21;45.38;;;28.83;;
81231;SDS011;70703;55.652;37.710;2024-03-23T01:44:32;47.00;;;29.23;;
81231;SDS011;70703;55.652;37.710;2024-03-23T01:44:44;47.42;;;29.48;;
81231;SDS011;70703;55.652;37.710;2024-03-23T01:44:55;46.42;;;28.60;;
81231;SDS011;70703;55.652;37.710;2024-03-23T01:45:07;46.95;;;28.80;;
81231;SDS011;70703;55.652;37.710;2024-03-23T01:45:20;49.40;;;29.42;;
81231;SDS011;70703;55.652;37.710;2024-03-23T01:45:31;47.08;;;28.67;;
81231;SDS011;70703;55.652;37.710;2024-03-23T01:45:44;49.03;;;29.10;;
81231;SDS011;70703;55.652;37.710;2024-03-23T01:45:56;50.03;;;29.48;;
81231;SDS011;70703;55.652;37.710;2024-03-23T01:46:09;49.38;;;29.40;;
81231;SDS011;70703;55.652;37.710;2024-03-23T01:46:22;47.13;;;29.42;;
81231;SDS011;70703;55.652;37.710;2024-03-23T01:46:33;46.20;;;29.15;;
81231;SDS011;70703;55.652;37.710;2024-03-23T01:46:45;46.22;;;29.83;;
81231;SDS011;70703;55.652;37.710;2024-03-23T01:46:56;47.05;;;30.35;;
81231;SDS011;70703;55.652;37.710;2024-03-23T01:47:07;46.28;;;29.98;;
81231;SDS011;70703;55.652;37.710;2024-03-23T01:47:20;47.72;;;29.83;;
81231;SDS011;70703;55.652;37.710;2024-03-23T01:47:33;48.72;;;30.30;;
81231;SDS011;70703;55.652;37.710;2024-03-23T01:47:44;48.60;;;30.40;;
81231;SDS011;70703;55.652;37.710;2024-03-23T01:47:55;48.97;;;30.33;;
81231;SDS011;70703;55.652;37.710;2024-03-23T01:48:07;47.60;;;28.92;;
81231;SDS011;70703;55.652;37.710;2024-03-23T01:48:23;46.92;;;28.40;;
81231;SDS011;70703;55.652;37.710;2024-03-23T01:48:35;47.30;;;28.73;;
81231;SDS011;70703;55.652;37.710;2024-03-23T01:48:47;46.45;;;28.65;;
81231;SDS011;70703;55.652;37.710;2024-03-23T01:49:01;46.63;;;29.08;;
81231;SDS011;70703;55.652;37.710;2024-03-23T01:49:12;46.65;;;29.20;;
81231;SDS011;70703;55.652;37.710;2024-03-23T01:49:23;48.70;;;29.13;;
81231;SDS011;70703;55.652;37.710;2024-03-23T01:49:35;48.70;;;29.25;;
81231;SDS011;70703;55.652;37.710;2024-03-23T01:49:47;47.85;;;29.55;;
81231;SDS011;70703;55.652;37.710;2024-03-23T01:49:59;47.22;;;29.30;;
81231;SDS011;70703;55.652;37.710;2024-03-23T01:50:11;45.80;;;29.08;;
81231;SDS011;70703;55.652;37.710;2024-03-23T01:50:22;48.13;;;29.73;;
81231;SDS011;70703;55.652;37.710;2024-03-23T01:50:34;47.60;;;29.90;;
81231;SDS011;70703;55.652;37.710;2024-03-23T01:50:45;48.35;;;30.23;;
81231;SDS011;70703;55.652;37.710;2024-03-23T01:50:58;47.25;;;30.00;;
81231;SDS011;70703;55.652;37.710;2024-03-23T01:51:10;46.83;;;29.70;;
81231;SDS011;70703;55.652;37.710;2024-03-23T01:51:22;47.55;;;29.88;;
81231;SDS011;70703;55.652;37.710;2024-03-23T01:51:35;49.97;;;30.55;;
81231;SDS011;70703;55.652;37.710;2024-03-23T01:51:46;51.80;;;30.77;;
81231;SDS011;70703;55.652;37.710;2024-03-23T01:51:59;51.70;;;30.25;;
81231;SDS011;70703;55.652;37.710;2024-03-23T01:52:11;50.00;;;29.98;;
81231;SDS011;70703;55.652;37.710;2024-03-23T01:52:22;50.35;;;30.60;;
81231;SDS011;70703;55.652;37.710;2024-03-23T01:52:35;49.42;;;31.08;;
81231;SDS011;70703;55.652;37.710;2024-03-23T01:52:47;49.92;;;31.42;;
81231;SDS011;70703;55.652;37.710;2024-03-23T01:52:59;51.10;;;31.40;;
81231;SDS011;70703;55.652;37.710;2024-03-23T01:53:10;49.13;;;30.67;;
81231;SDS011;70703;55.652;37.710;2024-03-23T01:53:22;49.15;;;30.65;;
81231;SDS011;70703;55.652;37.710;2024-03-23T01:53:35;49.80;;;30.80;;
81231;SDS011;70703;55.652;37.710;2024-03-23T01:53:48;50.80;;;30.75;;
81231;SDS011;70703;55.652;37.710;2024-03-23T01:53:59;49.53;;;30.17;;
81231;SDS011;70703;55.652;37.710;2024-03-23T01:54:15;47.53;;;29.98;;
81231;SDS011;70703;55.652;37.710;2024-03-23T01:54:26;46.33;;;30.30;;
81231;SDS011;70703;55.652;37.710;2024-03-23T01:54:40;48.22;;;30.42;;
81231;SDS011;70703;55.652;37.710;2024-03-23T01:54:51;49.00;;;29.85;;
81231;SDS011;70703;55.652;37.710;2024-03-23T01:55:04;50.80;;;30.20;;
81231;SDS011;70703;55.652;37.710;2024-03-23T01:55:16;53.05;;;31.08;;
81231;SDS011;70703;55.652;37.710;2024-03-23T01:55:28;50.88;;;31.13;;
81231;SDS011;70703;55.652;37.710;2024-03-23T01:55:39;48.40;;;31.13;;
81231;SDS011;70703;55.652;37.710;2024-03-23T01:55:52;48.47;;;30.85;;
81231;SDS011;70703;55.652;37.710;2024-03-23T01:56:04;50.40;;;30.75;;
81231;SDS011;70703;55.652;37.710;2024-03-23T01:56:17;51.17;;;30.52;;
81231;SDS011;70703;55.652;37.710;2024-03-23T01:56:28;50.25;;;30.30;;
81231;SDS011;70703;55.652;37.710;2024-03-23T01:56:41;49.40;;;29.75;;
81231;SDS011;70703;55.652;37.710;2024-03-23T01:56:52;47.97;;;29.30;;
81231;SDS011;70703;55.652;37.710;2024-03-23T01:57:04;46.45;;;29.10;;
81231;SDS011;70703;55.652;37.710;2024-03-23T01:57:17;47.67;;;29.83;;
81231;SDS011;70703;55.652;37.710;2024-03-23T01:57:29;46.97;;;29.90;;
81231;SDS011;70703;55.652;37.710;2024-03-23T01:57:41;46.30;;;29.98;;
81231;SDS011;70703;55.652;37.710;2024-03-23T01:57:52;47.15;;;30.23;;
81231;SDS011;70703;55.652;37.710;2024-03-23T01:58:07;48.90;;;30.38;;
81231;SDS011;70703;55.652;37.710;2024-03-23T01:58:18;49.95;;;30.15;;
81231;SDS011;70703;55.652;37.710;2024-03-23T01:58:32;50.03;;;30.02;;
81231;SDS011;70703;55.652;37.710;2024-03-23T01:58:44;46.53;;;29.63;;
81231;SDS011;70703;55.652;37.710;2024-03-23T01:58:56;46.45;;;29.75;;
81231;SDS011;70703;55.652;37.710;2024-03-23T01:59:08;47.50;;;29.67;;
81231;SDS011;70703;55.652;37.710;2024-03-23T01:59:20;50.45;;;29.55;;
81231;SDS011;70703;55.652;37.710;2024-03-23T01:59:32;48.50;;;29.13;;
81231;SDS011;70703;55.652;37.710;2024-03-23T01:59:43;47.78;;;28.73;;
81231;SDS011;70703;55.652;37.710;2024-03-23T01:59:55;46.40;;;28.48;;
81231;SDS011;70703;55.652;37.710;2024-03-23T02:00:12;47.47;;;28.83;;
81231;SDS011;70703;55.652;37.710;2024-03-23T02:00:25;46.65;;;28.98;;
81231;SDS011;70703;55.652;37.710;2024-03-23T02:00:38;45.08;;;28.95;;
81231;SDS011;70703;55.652;37.710;2024-03-23T02:00:49;46.28;;;29.00;;
81231;SDS011;70703;55.652;37.710;2024-03-23T02:01:00;49.08;;;29.45;;
81231;SDS011;70703;55.652;37.710;2024-03-23T02:01:12;50.60;;;30.50;;
81231;SDS011;70703;55.652;37.710;2024-03-23T02:01:23;49.05;;;30.35;;
81231;SDS011;70703;55.652;37.710;2024-03-23T02:01:34;48.17;;;30.08;;
81231;SDS011;70703;55.652;37.710;2024-03-23T02:01:46;46.42;;;29.52;;
81231;SDS011;70703;55.652;37.710;2024-03-23T02:01:58;47.05;;;30.25;;
81231;SDS011;70703;55.652;37.710;2024-03-23T02:02:12;46.22;;;30.13;;
81231;SDS011;70703;55.652;37.710;2024-03-23T02:02:23;46.40;;;30.05;;
81231;SDS011;70703;55.652;37.710;2024-03-23T02:02:35;49.83;;;30.33;;
81231;SDS011;70703;55.652;37.710;2024-03-23T02:02:46;51.03;;;30.75;;
81231;SDS011;70703;55.652;37.710;2024-03-23T02:02:57;48.08;;;30.55;;